PWSweather.com
Personal Weather Stations
Station Observations
CALONGE
CalongeES 17251

CalongeES 17251

Lat: 41.85972222, Lon: 3.077777778

Elevation: 16

Station Type: Oregon WMR928N

www.calonge-meteoweb.com

High Low Average
Temperature 85.6°F29.8°C 61.3°F16.3°C 73.6°F23.1°C
Dew Point 61.3°F16.3°C 47.5°F8.6°C 53.3°F11.8°C
Winds 12.0 mph 19.3 kmh Calm Calm 5.0 mph SSE8.0 kmh SSE
Wind Gusts 19.6 mph31.5 kmh -- 8.0 mph12.9 kmh
Humidity 93% 29% 54%
Pressure 29.98 in1015.2 mb 29.89 in1012.2 mb -
Precipitation 0.00 in0.0 mm - -
Hour Temp Dew Point Humidity Winds Wind Gusts Pressure Precip Precip Rate Daily Precip Total
12:00 AM 63.9°F17.7°C 56.9°F13.8°C 78% Calm Calm -- 29.92 in1013.2 mb 0.00 in0.0 mm 0.00 in0.0 mm 0.00 in0.0 mm
12:15 AM 63.7°F17.6°C 57.4°F14.1°C 80% Calm Calm -- 29.92 in1013.2 mb 0.00 in0.0 mm 0.00 in0.0 mm 0.00 in0.0 mm
12:30 AM 63.3°F17.4°C 57.4°F14.1°C 81% Calm Calm -- 29.92 in1013.2 mb 0.00 in0.0 mm 0.00 in0.0 mm 0.00 in0.0 mm
12:45 AM 63.1°F17.3°C 57.2°F14.0°C 81% Calm Calm -- 29.92 in1013.2 mb 0.00 in0.0 mm 0.00 in0.0 mm 0.00 in0.0 mm
01:00 AM 63.0°F17.2°C 56.7°F13.7°C 80% Calm Calm -- 29.92 in1013.2 mb 0.00 in0.0 mm 0.00 in0.0 mm 0.00 in0.0 mm
01:15 AM 62.6°F17.0°C 56.7°F13.7°C 81% Calm Calm -- 29.92 in1013.2 mb 0.00 in0.0 mm 0.00 in0.0 mm 0.00 in0.0 mm
01:30 AM 62.2°F16.8°C 57.0°F13.9°C 83% Calm Calm -- 29.92 in1013.2 mb 0.00 in0.0 mm 0.00 in0.0 mm 0.00 in0.0 mm
01:45 AM 62.1°F16.7°C 56.8°F13.8°C 83% Calm Calm -- 29.92 in1013.2 mb 0.00 in0.0 mm 0.00 in0.0 mm 0.00 in0.0 mm
02:00 AM 61.9°F16.6°C 56.7°F13.7°C 83% Calm Calm -- 29.92 in1013.2 mb 0.00 in0.0 mm 0.00 in0.0 mm 0.00 in0.0 mm
02:15 AM 61.7°F16.5°C 56.5°F13.6°C 83% Calm Calm -- 29.92 in1013.2 mb 0.00 in0.0 mm 0.00 in0.0 mm 0.00 in0.0 mm
02:30 AM 62.1°F16.7°C 57.8°F14.3°C 86% Calm Calm -- 29.92 in1013.2 mb 0.00 in0.0 mm 0.00 in0.0 mm 0.00 in0.0 mm
02:45 AM 62.1°F16.7°C 57.5°F14.2°C 85% Calm Calm -- 29.92 in1013.2 mb 0.00 in0.0 mm 0.00 in0.0 mm 0.00 in0.0 mm
03:00 AM 61.7°F16.5°C 57.5°F14.2°C 86% Calm Calm -- 29.92 in1013.2 mb 0.00 in0.0 mm 0.00 in0.0 mm 0.00 in0.0 mm
03:15 AM 61.5°F16.4°C 57.6°F14.2°C 87% Calm Calm -- 29.92 in1013.2 mb 0.00 in0.0 mm 0.00 in0.0 mm 0.00 in0.0 mm
03:30 AM 61.9°F16.6°C 58.9°F14.9°C 90% Calm Calm -- 29.92 in1013.2 mb 0.00 in0.0 mm 0.00 in0.0 mm 0.00 in0.0 mm
03:45 AM 61.9°F16.6°C 58.6°F14.8°C 89% Calm Calm -- 29.92 in1013.2 mb 0.00 in0.0 mm 0.00 in0.0 mm 0.00 in0.0 mm
04:00 AM 61.9°F16.6°C 58.9°F14.9°C 90% Calm Calm -- 29.92 in1013.2 mb 0.00 in0.0 mm 0.00 in0.0 mm 0.00 in0.0 mm
04:15 AM 61.7°F16.5°C 59.0°F15.0°C 91% Calm Calm -- 29.92 in1013.2 mb 0.00 in0.0 mm 0.00 in0.0 mm 0.00 in0.0 mm
04:30 AM 61.3°F16.3°C 58.4°F14.7°C 90% Calm Calm -- 29.92 in1013.2 mb 0.00 in0.0 mm 0.00 in0.0 mm 0.00 in0.0 mm
04:45 AM 61.7°F16.5°C 59.4°F15.2°C 92% Calm Calm -- 29.92 in1013.2 mb 0.00 in0.0 mm 0.00 in0.0 mm 0.00 in0.0 mm
05:00 AM 61.5°F16.4°C 59.2°F15.1°C 92% Calm Calm -- 29.92 in1013.2 mb 0.00 in0.0 mm 0.00 in0.0 mm 0.00 in0.0 mm
05:15 AM 61.3°F16.3°C 59.0°F15.0°C 92% Calm Calm -- 29.92 in1013.2 mb 0.00 in0.0 mm 0.00 in0.0 mm 0.00 in0.0 mm
05:30 AM 61.7°F16.5°C 59.7°F15.4°C 93% 5.3 mph WNW8.5 kmh WNW 7.0 mph11.3 kmh 29.92 in1013.2 mb 0.00 in0.0 mm 0.00 in0.0 mm 0.00 in0.0 mm
05:45 AM 62.2°F16.8°C 60.2°F15.7°C 93% 4.7 mph WNW7.6 kmh WNW 7.0 mph11.3 kmh 29.92 in1013.2 mb 0.00 in0.0 mm 0.00 in0.0 mm 0.00 in0.0 mm
06:00 AM 63.7°F17.6°C 61.0°F16.1°C 91% 5.3 mph NW8.5 kmh NW 7.6 mph12.2 kmh 29.92 in1013.2 mb 0.00 in0.0 mm 0.00 in0.0 mm 0.00 in0.0 mm
06:15 AM 64.9°F18.3°C 61.3°F16.3°C 88% 4.7 mph NW7.6 kmh NW 7.0 mph11.3 kmh 29.89 in1012.2 mb 0.00 in0.0 mm 0.00 in0.0 mm 0.00 in0.0 mm
06:30 AM 66.0°F18.9°C 60.7°F15.9°C 83% Calm Calm 5.3 mph8.5 kmh 29.89 in1012.2 mb 0.00 in0.0 mm 0.00 in0.0 mm 0.00 in0.0 mm
06:45 AM 67.1°F19.5°C 60.0°F15.6°C 78% 4.1 mph NNW6.6 kmh NNW 7.6 mph12.2 kmh 29.89 in1012.2 mb 0.00 in0.0 mm 0.00 in0.0 mm 0.00 in0.0 mm
07:00 AM 68.2°F20.1°C 58.4°F14.7°C 71% 8.2 mph NW13.2 kmh NW 10.8 mph17.4 kmh 29.92 in1013.2 mb 0.00 in0.0 mm 0.00 in0.0 mm 0.00 in0.0 mm
07:15 AM 69.4°F20.8°C 58.0°F14.4°C 67% 8.2 mph NW13.2 kmh NW 10.8 mph17.4 kmh 29.92 in1013.2 mb 0.00 in0.0 mm 0.00 in0.0 mm 0.00 in0.0 mm
07:30 AM 70.0°F21.1°C 57.7°F14.3°C 65% 8.2 mph NW13.2 kmh NW 12.0 mph19.3 kmh 29.92 in1013.2 mb 0.00 in0.0 mm 0.00 in0.0 mm 0.00 in0.0 mm
08:00 AM 70.9°F21.6°C 58.1°F14.5°C 64% 5.9 mph NW9.5 kmh NW 11.4 mph18.3 kmh 29.92 in1013.2 mb 0.00 in0.0 mm 0.00 in0.0 mm 0.00 in0.0 mm
08:15 AM 71.6°F22.0°C 57.0°F13.9°C 60% 10.5 mph NW16.9 kmh NW 13.8 mph22.2 kmh 29.92 in1013.2 mb 0.00 in0.0 mm 0.00 in0.0 mm 0.00 in0.0 mm
08:30 AM 72.9°F22.7°C 55.7°F13.2°C 55% 8.8 mph WNW14.2 kmh WNW 13.2 mph21.2 kmh 29.92 in1013.2 mb 0.00 in0.0 mm 0.00 in0.0 mm 0.00 in0.0 mm
08:45 AM 73.9°F23.3°C 55.2°F12.9°C 52% 8.2 mph NW13.2 kmh NW 16.1 mph25.9 kmh 29.92 in1013.2 mb 0.00 in0.0 mm 0.00 in0.0 mm 0.00 in0.0 mm
09:00 AM 75.4°F24.1°C 53.7°F12.1°C 47% 10.5 mph NNW16.9 kmh NNW 10.8 mph17.4 kmh 29.92 in1013.2 mb 0.00 in0.0 mm 0.00 in0.0 mm 0.00 in0.0 mm
09:15 AM 76.5°F24.7°C 52.9°F11.6°C 44% 10.0 mph NNW16.1 kmh NNW 12.6 mph20.3 kmh 29.92 in1013.2 mb 0.00 in0.0 mm 0.00 in0.0 mm 0.00 in0.0 mm
09:30 AM 77.0°F25.0°C 52.8°F11.6°C 43% 6.4 mph NW10.3 kmh NW 11.4 mph18.3 kmh 29.92 in1013.2 mb 0.00 in0.0 mm 0.00 in0.0 mm 0.00 in0.0 mm
09:45 AM 77.4°F25.2°C 51.8°F11.0°C 41% 5.9 mph NNW9.5 kmh NNW 10.5 mph16.9 kmh 29.92 in1013.2 mb 0.00 in0.0 mm 0.00 in0.0 mm 0.00 in0.0 mm
10:00 AM 78.3°F25.7°C 51.3°F10.7°C 39% 4.7 mph NNW7.6 kmh NNW 10.0 mph16.1 kmh 29.92 in1013.2 mb 0.00 in0.0 mm 0.00 in0.0 mm 0.00 in0.0 mm
10:15 AM 79.0°F26.1°C 51.2°F10.7°C 38% 5.9 mph NW9.5 kmh NW 9.4 mph15.1 kmh 29.92 in1013.2 mb 0.00 in0.0 mm 0.00 in0.0 mm 0.00 in0.0 mm
10:30 AM 79.7°F26.5°C 50.4°F10.2°C 36% 4.7 mph NNW7.6 kmh NNW 9.4 mph15.1 kmh 29.92 in1013.2 mb 0.00 in0.0 mm 0.00 in0.0 mm 0.00 in0.0 mm
10:45 AM 80.4°F26.9°C 49.5°F9.7°C 34% 7.6 mph NW12.2 kmh NW 10.5 mph16.9 kmh 29.92 in1013.2 mb 0.00 in0.0 mm 0.00 in0.0 mm 0.00 in0.0 mm
11:00 AM 81.9°F27.7°C 48.3°F9.1°C 31% 2.9 mph NE4.7 kmh NE 10.5 mph16.9 kmh 29.92 in1013.2 mb 0.00 in0.0 mm 0.00 in0.0 mm 0.00 in0.0 mm
11:15 AM 82.4°F28.0°C 47.8°F8.8°C 30% Calm Calm 10.0 mph16.1 kmh 29.92 in1013.2 mb 0.00 in0.0 mm 0.00 in0.0 mm 0.00 in0.0 mm
11:30 AM 83.3°F28.5°C 48.6°F9.2°C 30% 4.7 mph NNE7.6 kmh NNE 7.6 mph12.2 kmh 29.92 in1013.2 mb 0.00 in0.0 mm 0.00 in0.0 mm 0.00 in0.0 mm
11:45 AM 83.5°F28.6°C 49.7°F9.8°C 31% Calm Calm 4.7 mph7.6 kmh 29.92 in1013.2 mb 0.00 in0.0 mm 0.00 in0.0 mm 0.00 in0.0 mm
12:00 PM 83.5°F28.6°C 48.8°F9.3°C 30% 4.7 mph NE7.6 kmh NE 5.3 mph8.5 kmh 29.92 in1013.2 mb 0.00 in0.0 mm 0.00 in0.0 mm 0.00 in0.0 mm
12:15 PM 83.8°F28.8°C 50.0°F10.0°C 31% 8.2 mph E13.2 kmh E 11.4 mph18.3 kmh 29.92 in1013.2 mb 0.00 in0.0 mm 0.00 in0.0 mm 0.00 in0.0 mm
12:30 PM 84.7°F29.3°C 49.9°F9.9°C 30% 10.8 mph E17.4 kmh E 14.4 mph23.2 kmh 29.92 in1013.2 mb 0.00 in0.0 mm 0.00 in0.0 mm 0.00 in0.0 mm
12:45 PM 85.6°F29.8°C 49.7°F9.8°C 29% 6.4 mph E10.3 kmh E 14.4 mph23.2 kmh 29.92 in1013.2 mb 0.00 in0.0 mm 0.00 in0.0 mm 0.00 in0.0 mm
01:00 PM 84.7°F29.3°C 49.0°F9.4°C 29% 9.4 mph ENE15.1 kmh ENE 12.0 mph19.3 kmh 29.92 in1013.2 mb 0.00 in0.0 mm 0.00 in0.0 mm 0.00 in0.0 mm
01:15 PM 83.5°F28.6°C 49.7°F9.8°C 31% 2.9 mph NE4.7 kmh NE 8.2 mph13.2 kmh 29.92 in1013.2 mb 0.00 in0.0 mm 0.00 in0.0 mm 0.00 in0.0 mm
01:30 PM 83.8°F28.8°C 49.1°F9.5°C 30% 4.1 mph NW6.6 kmh NW 7.6 mph12.2 kmh 29.92 in1013.2 mb 0.00 in0.0 mm 0.00 in0.0 mm 0.00 in0.0 mm
01:45 PM 83.5°F28.6°C 49.7°F9.8°C 31% 5.9 mph NE9.5 kmh NE 7.6 mph12.2 kmh 29.92 in1013.2 mb 0.00 in0.0 mm 0.00 in0.0 mm 0.00 in0.0 mm
02:00 PM 82.9°F28.3°C 53.2°F11.8°C 36% 10.8 mph E17.4 kmh E 16.7 mph26.9 kmh 29.92 in1013.2 mb 0.00 in0.0 mm 0.00 in0.0 mm 0.00 in0.0 mm
02:15 PM 83.8°F28.8°C 50.8°F10.4°C 32% 11.4 mph ENE18.3 kmh ENE 14.4 mph23.2 kmh 29.89 in1012.2 mb 0.00 in0.0 mm 0.00 in0.0 mm 0.00 in0.0 mm
02:30 PM 83.8°F28.8°C 50.0°F10.0°C 31% 9.4 mph ENE15.1 kmh ENE 14.9 mph24.0 kmh 29.89 in1012.2 mb 0.00 in0.0 mm 0.00 in0.0 mm 0.00 in0.0 mm
02:45 PM 83.5°F28.6°C 50.5°F10.3°C 32% 12.0 mph NE19.3 kmh NE 16.1 mph25.9 kmh 29.92 in1013.2 mb 0.00 in0.0 mm 0.00 in0.0 mm 0.00 in0.0 mm
03:00 PM 83.8°F28.8°C 50.8°F10.4°C 32% 8.2 mph ENE13.2 kmh ENE 13.8 mph22.2 kmh 29.89 in1012.2 mb 0.00 in0.0 mm 0.00 in0.0 mm 0.00 in0.0 mm
03:15 PM 84.4°F29.1°C 50.4°F10.2°C 31% 7.0 mph NE11.3 kmh NE 11.4 mph18.3 kmh 29.89 in1012.2 mb 0.00 in0.0 mm 0.00 in0.0 mm 0.00 in0.0 mm
03:30 PM 84.6°F29.2°C 50.6°F10.3°C 31% 9.4 mph ENE15.1 kmh ENE 12.0 mph19.3 kmh 29.89 in1012.2 mb 0.00 in0.0 mm 0.00 in0.0 mm 0.00 in0.0 mm
03:45 PM 84.7°F29.3°C 51.6°F10.9°C 32% 10.8 mph ENE17.4 kmh ENE 16.7 mph26.9 kmh 29.89 in1012.2 mb 0.00 in0.0 mm 0.00 in0.0 mm 0.00 in0.0 mm
04:00 PM 84.7°F29.3°C 50.8°F10.4°C 31% 7.0 mph E11.3 kmh E 16.1 mph25.9 kmh 29.89 in1012.2 mb 0.00 in0.0 mm 0.00 in0.0 mm 0.00 in0.0 mm
04:15 PM 84.9°F29.4°C 51.8°F11.0°C 32% 8.2 mph ENE13.2 kmh ENE 13.2 mph21.2 kmh 29.89 in1012.2 mb 0.00 in0.0 mm 0.00 in0.0 mm 0.00 in0.0 mm
04:30 PM 84.0°F28.9°C 51.0°F10.6°C 32% 10.8 mph ENE17.4 kmh ENE 16.1 mph25.9 kmh 29.89 in1012.2 mb 0.00 in0.0 mm 0.00 in0.0 mm 0.00 in0.0 mm
04:45 PM 83.1°F28.4°C 51.0°F10.6°C 33% 8.8 mph ENE14.2 kmh ENE 19.6 mph31.5 kmh 29.89 in1012.2 mb 0.00 in0.0 mm 0.00 in0.0 mm 0.00 in0.0 mm
05:00 PM 82.2°F27.9°C 50.2°F10.1°C 33% 9.4 mph NE15.1 kmh NE 14.4 mph23.2 kmh 29.89 in1012.2 mb 0.00 in0.0 mm 0.00 in0.0 mm 0.00 in0.0 mm
05:15 PM 81.3°F27.4°C 50.3°F10.2°C 34% 9.4 mph E15.1 kmh E 17.3 mph27.8 kmh 29.89 in1012.2 mb 0.00 in0.0 mm 0.00 in0.0 mm 0.00 in0.0 mm
05:30 PM 80.8°F27.1°C 51.3°F10.7°C 36% 7.6 mph ENE12.2 kmh ENE 18.5 mph29.8 kmh 29.89 in1012.2 mb 0.00 in0.0 mm 0.00 in0.0 mm 0.00 in0.0 mm
05:45 PM 79.9°F26.6°C 51.3°F10.7°C 37% 9.4 mph ENE15.1 kmh ENE 14.9 mph24.0 kmh 29.89 in1012.2 mb 0.00 in0.0 mm 0.00 in0.0 mm 0.00 in0.0 mm
06:00 PM 79.7°F26.5°C 51.1°F10.6°C 37% 8.8 mph ENE14.2 kmh ENE 15.5 mph24.9 kmh 29.89 in1012.2 mb 0.00 in0.0 mm 0.00 in0.0 mm 0.00 in0.0 mm
06:15 PM 79.0°F26.1°C 51.2°F10.7°C 38% 4.1 mph NNW6.6 kmh NNW 5.9 mph9.5 kmh 29.92 in1013.2 mb 0.00 in0.0 mm 0.00 in0.0 mm 0.00 in0.0 mm
06:30 PM 78.1°F25.6°C 51.1°F10.6°C 39% 7.0 mph NE11.3 kmh NE 10.0 mph16.1 kmh 29.92 in1013.2 mb 0.00 in0.0 mm 0.00 in0.0 mm 0.00 in0.0 mm
06:45 PM 77.4°F25.2°C 52.5°F11.4°C 42% 7.0 mph E11.3 kmh E 10.5 mph16.9 kmh 29.92 in1013.2 mb 0.00 in0.0 mm 0.00 in0.0 mm 0.00 in0.0 mm
07:00 PM 76.5°F24.7°C 54.7°F12.6°C 47% 9.4 mph ENE15.1 kmh ENE 10.8 mph17.4 kmh 29.92 in1013.2 mb 0.00 in0.0 mm 0.00 in0.0 mm 0.00 in0.0 mm
07:15 PM 75.9°F24.4°C 54.8°F12.7°C 48% 5.9 mph NNE9.5 kmh NNE 5.3 mph8.5 kmh 29.92 in1013.2 mb 0.00 in0.0 mm 0.00 in0.0 mm 0.00 in0.0 mm
07:30 PM 75.6°F24.2°C 53.9°F12.2°C 47% Calm Calm 6.4 mph10.3 kmh 29.92 in1013.2 mb 0.00 in0.0 mm 0.00 in0.0 mm 0.00 in0.0 mm
07:45 PM 75.7°F24.3°C 53.5°F11.9°C 46% Calm Calm -- 29.92 in1013.2 mb 0.00 in0.0 mm 0.00 in0.0 mm 0.00 in0.0 mm
08:00 PM 75.6°F24.2°C 52.1°F11.2°C 44% Calm Calm -- 29.92 in1013.2 mb 0.00 in0.0 mm 0.00 in0.0 mm 0.00 in0.0 mm
08:15 PM 75.2°F24.0°C 51.8°F11.0°C 44% Calm Calm 4.7 mph7.6 kmh 29.92 in1013.2 mb 0.00 in0.0 mm 0.00 in0.0 mm 0.00 in0.0 mm
08:30 PM 74.5°F23.6°C 52.9°F11.6°C 47% Calm Calm 4.7 mph7.6 kmh 29.92 in1013.2 mb 0.00 in0.0 mm 0.00 in0.0 mm 0.00 in0.0 mm
08:45 PM 73.9°F23.3°C 53.6°F12.0°C 49% Calm Calm 4.1 mph6.6 kmh 29.92 in1013.2 mb 0.00 in0.0 mm 0.00 in0.0 mm 0.00 in0.0 mm
09:00 PM 73.6°F23.1°C 50.3°F10.2°C 44% 5.3 mph NW8.5 kmh NW 8.2 mph13.2 kmh 29.95 in1014.2 mb 0.00 in0.0 mm 0.00 in0.0 mm 0.00 in0.0 mm
09:15 PM 73.2°F22.9°C 49.4°F9.7°C 43% 4.7 mph NW7.6 kmh NW 10.5 mph16.9 kmh 29.95 in1014.2 mb 0.00 in0.0 mm 0.00 in0.0 mm 0.00 in0.0 mm
09:30 PM 72.9°F22.7°C 49.1°F9.5°C 43% 6.4 mph NW10.3 kmh NW 8.2 mph13.2 kmh 29.95 in1014.2 mb 0.00 in0.0 mm 0.00 in0.0 mm 0.00 in0.0 mm
09:45 PM 72.5°F22.5°C 49.3°F9.6°C 44% 7.6 mph NW12.2 kmh NW 10.8 mph17.4 kmh 29.95 in1014.2 mb 0.00 in0.0 mm 0.00 in0.0 mm 0.00 in0.0 mm
10:00 PM 72.1°F22.3°C 48.4°F9.1°C 43% 5.9 mph WNW9.5 kmh WNW 10.5 mph16.9 kmh 29.95 in1014.2 mb 0.00 in0.0 mm 0.00 in0.0 mm 0.00 in0.0 mm
10:15 PM 71.8°F22.1°C 48.1°F8.9°C 43% 5.9 mph NW9.5 kmh NW 10.8 mph17.4 kmh 29.95 in1014.2 mb 0.00 in0.0 mm 0.00 in0.0 mm 0.00 in0.0 mm
10:30 PM 71.6°F22.0°C 47.9°F8.8°C 43% 9.4 mph NW15.1 kmh NW 11.4 mph18.3 kmh 29.95 in1014.2 mb 0.00 in0.0 mm 0.00 in0.0 mm 0.00 in0.0 mm
10:45 PM 71.2°F21.8°C 47.6°F8.7°C 43% 7.6 mph NW12.2 kmh NW 8.2 mph13.2 kmh 29.95 in1014.2 mb 0.00 in0.0 mm 0.00 in0.0 mm 0.00 in0.0 mm
11:00 PM 70.9°F21.6°C 47.9°F8.8°C 44% 7.6 mph NNW12.2 kmh NNW 10.8 mph17.4 kmh 29.95 in1014.2 mb 0.00 in0.0 mm 0.00 in0.0 mm 0.00 in0.0 mm
11:15 PM 70.7°F21.5°C 47.7°F8.7°C 44% 8.8 mph NW14.2 kmh NW 16.7 mph26.9 kmh 29.95 in1014.2 mb 0.00 in0.0 mm 0.00 in0.0 mm 0.00 in0.0 mm
11:30 PM 70.2°F21.2°C 47.8°F8.8°C 45% 9.4 mph NNW15.1 kmh NNW 11.4 mph18.3 kmh 29.95 in1014.2 mb 0.00 in0.0 mm 0.00 in0.0 mm 0.00 in0.0 mm
11:45 PM 69.8°F21.0°C 47.5°F8.6°C 45% 7.6 mph NW12.2 kmh NW 11.4 mph18.3 kmh 29.98 in1015.2 mb 0.00 in0.0 mm 0.00 in0.0 mm 0.00 in0.0 mm